createdAt,value
2015-11-07T00:00:06.679Z,745.82
2015-11-07T00:00:19.898Z,745.92
2015-11-07T00:00:33.116Z,745.92
2015-11-07T00:00:46.322Z,745.99
2015-11-07T00:00:59.572Z,745.91
2015-11-07T00:01:12.822Z,745.87
2015-11-07T00:01:26.087Z,746.04
2015-11-07T00:01:39.353Z,746.08
2015-11-07T00:01:52.575Z,745.97
2015-11-07T00:02:05.793Z,745.8
2015-11-07T00:02:19.028Z,745.94
2015-11-07T00:02:32.246Z,745.85
2015-11-07T00:02:45.453Z,745.93
2015-11-07T00:02:58.687Z,745.97
2015-11-07T00:03:11.921Z,746.01
2015-11-07T00:03:25.156Z,745.94
2015-11-07T00:03:38.421Z,745.91
2015-11-07T00:03:51.643Z,745.93
2015-11-07T00:04:04.846Z,745.88
2015-11-07T00:04:18.049Z,745.97
2015-11-07T00:04:31.268Z,745.87
2015-11-07T00:04:44.471Z,745.93
2015-11-07T00:04:57.708Z,745.95
2015-11-07T00:05:10.973Z,745.87
2015-11-07T00:05:24.239Z,745.88
2015-11-07T00:05:37.458Z,745.84
2015-11-07T00:05:50.679Z,745.92
2015-11-07T00:06:03.898Z,745.99
2015-11-07T00:06:17.132Z,745.93
2015-11-07T00:06:30.367Z,746.02
2015-11-07T00:06:43.586Z,745.9
2015-11-07T00:06:56.667Z,745.89
2015-11-07T00:07:09.932Z,745.94
2015-11-07T00:07:23.214Z,746.02
2015-11-07T00:07:36.495Z,746
2015-11-07T00:07:49.732Z,746.01
2015-11-07T00:08:02.951Z,745.95
2015-11-07T00:08:16.170Z,745.91
2015-11-07T00:08:29.388Z,745.95
2015-11-07T00:08:42.623Z,745.93
2015-11-07T00:08:55.844Z,745.87
2015-11-07T00:09:09.094Z,746.06
2015-11-07T00:09:22.328Z,746.03
2015-11-07T00:09:35.594Z,745.96
2015-11-07T00:09:48.703Z,745.96
2015-11-07T00:10:01.924Z,745.95
2015-11-07T00:10:15.174Z,745.96
2015-11-07T00:10:28.392Z,746.06
2015-11-07T00:10:41.611Z,745.98
2015-11-07T00:10:54.849Z,746.02
2015-11-07T00:11:08.067Z,745.97
2015-11-07T00:11:21.302Z,746.03
2015-11-07T00:11:34.552Z,745.98
2015-11-07T00:11:47.802Z,745.98
2015-11-07T00:12:01.055Z,745.92
2015-11-07T00:12:14.180Z,745.95
2015-11-07T00:12:27.398Z,745.94
2015-11-07T00:12:40.633Z,745.99
2015-11-07T00:12:53.855Z,745.98
2015-11-07T00:13:07.089Z,745.91
2015-11-07T00:13:20.308Z,746.01
2015-11-07T00:13:33.542Z,745.97
2015-11-07T00:13:46.776Z,746.04
2015-11-07T00:14:00.014Z,746.05
2015-11-07T00:14:13.279Z,746.02
2015-11-07T00:14:26.545Z,745.95
2015-11-07T00:14:39.795Z,745.95
2015-11-07T00:14:53.031Z,746.01
2015-11-07T00:15:06.250Z,746.04
2015-11-07T00:15:19.469Z,746.04
2015-11-07T00:15:32.688Z,746.02
2015-11-07T00:15:45.906Z,746.08
2015-11-07T00:15:59.128Z,746.02
2015-11-07T00:16:12.347Z,745.88
2015-11-07T00:16:25.613Z,746.03
2015-11-07T00:16:38.847Z,746.01
2015-11-07T00:16:52.100Z,745.97
2015-11-07T00:17:05.366Z,745.97
2015-11-07T00:17:18.631Z,745.92
2015-11-07T00:17:31.850Z,745.96
2015-11-07T00:17:45.084Z,746.05
2015-11-07T00:17:58.305Z,745.97
2015-11-07T00:18:11.539Z,746.03
2015-11-07T00:18:24.758Z,746
2015-11-07T00:18:37.821Z,745.94
2015-11-07T00:18:51.039Z,745.99
2015-11-07T00:19:04.292Z,745.95
2015-11-07T00:19:17.542Z,745.99
2015-11-07T00:19:30.824Z,746.01
2015-11-07T00:19:43.917Z,746.02
2015-11-07T00:19:57.139Z,745.98
2015-11-07T00:20:10.358Z,745.95
2015-11-07T00:20:23.592Z,745.98
2015-11-07T00:20:36.811Z,745.95
2015-11-07T00:20:50.030Z,745.97
2015-11-07T00:21:03.266Z,746.01
2015-11-07T00:21:16.501Z,745.97
2015-11-07T00:21:29.751Z,746
2015-11-07T00:21:43.001Z,745.92
2015-11-07T00:21:56.254Z,746.01
2015-11-07T00:22:09.347Z,745.92
2015-11-07T00:22:22.550Z,746.02
2015-11-07T00:22:35.785Z,746
2015-11-07T00:22:48.847Z,745.96
2015-11-07T00:23:01.928Z,745.97
2015-11-07T00:23:15.147Z,745.92
2015-11-07T00:23:28.366Z,745.99
2015-11-07T00:23:41.600Z,745.97
2015-11-07T00:23:54.850Z,745.97
2015-11-07T00:24:08.118Z,745.96
2015-11-07T00:24:21.384Z,745.92
2015-11-07T00:24:34.602Z,745.96
2015-11-07T00:24:47.821Z,745.96
2015-11-07T00:25:01.044Z,745.94
2015-11-07T00:25:14.294Z,745.99
2015-11-07T00:25:27.544Z,745.92
2015-11-07T00:25:40.778Z,745.97
2015-11-07T00:25:54.028Z,745.97
2015-11-07T00:26:07.280Z,745.99
2015-11-07T00:26:20.530Z,745.98
2015-11-07T00:26:33.796Z,746.02
2015-11-07T00:26:47.046Z,745.92
2015-11-07T00:27:00.282Z,745.95
2015-11-07T00:27:13.501Z,745.95
2015-11-07T00:27:26.735Z,745.98
2015-11-07T00:27:39.970Z,745.96
2015-11-07T00:27:53.188Z,745.96
2015-11-07T00:28:06.442Z,746
2015-11-07T00:28:19.677Z,745.97
2015-11-07T00:28:32.927Z,745.91
2015-11-07T00:28:46.177Z,745.95
2015-11-07T00:28:59.442Z,745.97
2015-11-07T00:29:12.663Z,745.93
2015-11-07T00:29:25.882Z,745.98
2015-11-07T00:29:39.101Z,745.98
2015-11-07T00:29:52.319Z,745.99
2015-11-07T00:30:05.588Z,745.94
2015-11-07T00:30:18.822Z,745.91
2015-11-07T00:30:32.072Z,745.95
2015-11-07T00:30:45.307Z,745.96
2015-11-07T00:30:58.541Z,746
2015-11-07T00:31:11.779Z,745.92
2015-11-07T00:31:25.013Z,745.89
2015-11-07T00:31:38.232Z,745.91
2015-11-07T00:31:51.466Z,745.9
2015-11-07T00:32:04.735Z,745.98
2015-11-07T00:32:17.985Z,745.86
2015-11-07T00:32:31.235Z,745.93
2015-11-07T00:32:44.469Z,745.93
2015-11-07T00:32:57.672Z,745.97
2015-11-07T00:33:10.910Z,745.97
2015-11-07T00:33:24.144Z,746.01
2015-11-07T00:33:37.347Z,745.99
2015-11-07T00:33:50.581Z,745.93
2015-11-07T00:34:03.816Z,745.94
2015-11-07T00:34:17.083Z,746.01
2015-11-07T00:34:30.349Z,745.95
2015-11-07T00:34:43.568Z,746.01
2015-11-07T00:34:56.818Z,746.01
2015-11-07T00:35:10.054Z,746.03
2015-11-07T00:35:23.117Z,745.94
2015-11-07T00:35:36.351Z,746
2015-11-07T00:35:49.570Z,746
2015-11-07T00:36:02.804Z,745.99
2015-11-07T00:36:15.901Z,745.91
2015-11-07T00:36:29.151Z,745.97
2015-11-07T00:36:42.401Z,745.89
2015-11-07T00:36:55.651Z,745.89
2015-11-07T00:37:08.888Z,745.91
2015-11-07T00:37:22.107Z,745.93
2015-11-07T00:37:35.341Z,745.91
2015-11-07T00:37:48.560Z,745.9
2015-11-07T00:38:01.623Z,745.92
2015-11-07T00:38:14.828Z,745.79
2015-11-07T00:38:28.031Z,746.02
2015-11-07T00:38:41.250Z,746.01
2015-11-07T00:38:54.515Z,745.95
2015-11-07T00:39:07.765Z,745.97
2015-11-07T00:39:21.019Z,746.03
2015-11-07T00:39:34.082Z,745.97
2015-11-07T00:39:47.285Z,745.98
2015-11-07T00:40:00.504Z,745.99
2015-11-07T00:40:13.740Z,745.98
2015-11-07T00:40:27.006Z,746.02
2015-11-07T00:40:40.271Z,746.06
2015-11-07T00:40:53.521Z,746.05
2015-11-07T00:41:06.740Z,745.95
2015-11-07T00:41:19.963Z,746.02
2015-11-07T00:41:33.182Z,746.04
2015-11-07T00:41:46.416Z,745.93
2015-11-07T00:41:59.650Z,746.01
2015-11-07T00:42:12.901Z,746.09
2015-11-07T00:42:26.167Z,746.04
2015-11-07T00:42:39.433Z,745.99
2015-11-07T00:42:52.667Z,745.97
2015-11-07T00:43:05.886Z,745.98
2015-11-07T00:43:19.108Z,746.08
2015-11-07T00:43:32.343Z,746.07
2015-11-07T00:43:45.562Z,746.03
2015-11-07T00:43:58.796Z,745.98
2015-11-07T00:44:12.030Z,745.95
2015-11-07T00:44:25.267Z,746.06
2015-11-07T00:44:38.517Z,746.03
2015-11-07T00:44:51.782Z,745.95
2015-11-07T00:45:05.017Z,745.96
2015-11-07T00:45:18.238Z,745.99
2015-11-07T00:45:31.457Z,745.97
2015-11-07T00:45:44.692Z,745.92
2015-11-07T00:45:57.910Z,745.96
2015-11-07T00:46:11.129Z,746.02
2015-11-07T00:46:24.351Z,745.99
2015-11-07T00:46:37.601Z,746.03
2015-11-07T00:46:50.835Z,745.97
2015-11-07T00:47:04.085Z,745.98
2015-11-07T00:47:17.353Z,745.97
2015-11-07T00:47:30.603Z,745.95
2015-11-07T00:47:43.822Z,745.9
2015-11-07T00:47:56.900Z,745.97
2015-11-07T00:48:10.118Z,745.94
2015-11-07T00:48:23.356Z,745.95
2015-11-07T00:48:36.575Z,745.99
2015-11-07T00:48:49.809Z,746.01
2015-11-07T00:49:03.028Z,746.02
2015-11-07T00:49:16.281Z,746.08
2015-11-07T00:49:29.546Z,745.99
2015-11-07T00:49:42.781Z,746.03
2015-11-07T00:49:55.999Z,745.92
2015-11-07T00:50:09.218Z,746
2015-11-07T00:50:22.440Z,745.96
2015-11-07T00:50:35.674Z,745.93
2015-11-07T00:50:48.752Z,745.97
2015-11-07T00:51:02.018Z,746.03
2015-11-07T00:51:15.268Z,745.99
2015-11-07T00:51:28.536Z,745.94
2015-11-07T00:51:41.833Z,745.95
2015-11-07T00:51:55.083Z,745.97
2015-11-07T00:52:08.286Z,745.9
2015-11-07T00:52:21.554Z,745.9
2015-11-07T00:52:34.757Z,745.93
2015-11-07T00:52:47.992Z,745.93
2015-11-07T00:53:01.211Z,745.95
2015-11-07T00:53:14.445Z,745.94
2015-11-07T00:53:27.681Z,745.96
2015-11-07T00:53:40.963Z,745.97
2015-11-07T00:53:54.181Z,745.97
2015-11-07T00:54:07.400Z,745.94
2015-11-07T00:54:20.637Z,745.94
2015-11-07T00:54:33.841Z,745.95
2015-11-07T00:54:47.075Z,745.99
2015-11-07T00:55:00.153Z,746.01
2015-11-07T00:55:13.387Z,745.89
2015-11-07T00:55:26.640Z,745.94
2015-11-07T00:55:39.875Z,745.93
2015-11-07T00:55:53.125Z,745.91
2015-11-07T00:56:06.359Z,745.83
2015-11-07T00:56:19.580Z,745.99
2015-11-07T00:56:32.799Z,745.97
2015-11-07T00:56:46.064Z,745.96
2015-11-07T00:56:59.314Z,745.97
2015-11-07T00:57:12.533Z,745.74
2015-11-07T00:57:25.756Z,745.88
2015-11-07T00:57:38.990Z,745.92
2015-11-07T00:57:52.193Z,745.83
2015-11-07T00:58:05.412Z,745.93
2015-11-07T00:58:18.631Z,745.87
2015-11-07T00:58:31.867Z,745.96
2015-11-07T00:58:45.117Z,745.96
2015-11-07T00:58:58.383Z,745.86
2015-11-07T00:59:11.648Z,745.88
2015-11-07T00:59:24.869Z,745.87
2015-11-07T00:59:38.088Z,745.88
2015-11-07T00:59:51.307Z,745.86
2015-11-07T01:00:04.525Z,745.96
2015-11-07T01:00:17.791Z,745.99
2015-11-07T01:00:31.029Z,745.96
2015-11-07T01:00:44.279Z,745.91
2015-11-07T01:00:57.529Z,745.73
2015-11-07T01:01:10.748Z,745.88
2015-11-07T01:01:23.969Z,745.86
2015-11-07T01:01:37.188Z,745.95
2015-11-07T01:01:50.422Z,745.9
2015-11-07T01:02:03.641Z,745.89
2015-11-07T01:02:16.875Z,745.95
2015-11-07T01:02:30.128Z,745.91
2015-11-07T01:02:43.363Z,745.91
2015-11-07T01:02:56.628Z,745.84
2015-11-07T01:03:09.878Z,745.92
2015-11-07T01:03:23.116Z,745.87
2015-11-07T01:03:36.334Z,745.84
2015-11-07T01:03:49.553Z,745.91
2015-11-07T01:04:02.756Z,745.95
2015-11-07T01:04:15.991Z,745.96
2015-11-07T01:04:29.212Z,745.9
2015-11-07T01:04:42.447Z,745.94
2015-11-07T01:04:55.681Z,745.97
2015-11-07T01:05:08.947Z,745.91
2015-11-07T01:05:22.212Z,745.82
2015-11-07T01:05:35.417Z,745.94
2015-11-07T01:05:48.636Z,746.01
2015-11-07T01:06:01.855Z,745.94
2015-11-07T01:06:15.089Z,745.83
2015-11-07T01:06:28.295Z,745.97
2015-11-07T01:06:41.530Z,746.02
2015-11-07T01:06:54.780Z,745.89
2015-11-07T01:07:08.030Z,745.99
2015-11-07T01:07:21.295Z,745.99
2015-11-07T01:07:34.563Z,746.01
2015-11-07T01:07:47.782Z,746
2015-11-07T01:08:01.001Z,745.88
2015-11-07T01:08:14.219Z,745.94
2015-11-07T01:08:27.441Z,745.97
2015-11-07T01:08:40.660Z,746.02
2015-11-07T01:08:53.894Z,745.96
2015-11-07T01:09:06.972Z,745.94
2015-11-07T01:09:20.222Z,745.92
2015-11-07T01:09:33.475Z,745.96
2015-11-07T01:09:46.741Z,745.97
2015-11-07T01:10:00.007Z,745.91
2015-11-07T01:10:13.241Z,746.05
2015-11-07T01:10:26.462Z,746
2015-11-07T01:10:39.680Z,746.01
2015-11-07T01:10:52.899Z,745.99
2015-11-07T01:11:06.180Z,745.98
2015-11-07T01:11:19.430Z,746
2015-11-07T01:11:32.683Z,745.99
2015-11-07T01:11:45.949Z,746.05
2015-11-07T01:11:59.168Z,746
2015-11-07T01:12:12.402Z,745.96
2015-11-07T01:12:25.605Z,746.01
2015-11-07T01:12:38.827Z,745.93
2015-11-07T01:12:52.046Z,745.89
2015-11-07T01:13:05.249Z,745.89
2015-11-07T01:13:18.499Z,745.9
2015-11-07T01:13:31.751Z,745.97
2015-11-07T01:13:45.017Z,745.94
2015-11-07T01:13:58.110Z,746.07
2015-11-07T01:14:11.392Z,745.98
2015-11-07T01:14:24.626Z,745.95
2015-11-07T01:14:37.849Z,746.03
2015-11-07T01:14:51.083Z,746.06
2015-11-07T01:15:04.286Z,746.06
2015-11-07T01:15:17.521Z,746
2015-11-07T01:15:30.741Z,745.9
2015-11-07T01:15:43.976Z,745.96
2015-11-07T01:15:57.226Z,746.01
2015-11-07T01:16:10.491Z,746.04
2015-11-07T01:16:23.741Z,746.08
2015-11-07T01:16:36.994Z,746.03
2015-11-07T01:16:50.244Z,745.95
2015-11-07T01:17:03.447Z,746.02
2015-11-07T01:17:16.682Z,746.01
2015-11-07T01:17:29.918Z,746.1
2015-11-07T01:17:43.137Z,746.09
2015-11-07T01:17:56.371Z,746
2015-11-07T01:18:09.606Z,746
2015-11-07T01:18:22.840Z,746
2015-11-07T01:18:36.110Z,746.08
2015-11-07T01:18:49.360Z,746.01
2015-11-07T01:19:02.641Z,746.02
2015-11-07T01:19:15.938Z,746.01
2015-11-07T01:19:29.172Z,746.16
2015-11-07T01:19:42.393Z,745.96
2015-11-07T01:19:55.612Z,745.95
2015-11-07T01:20:08.674Z,746.06
2015-11-07T01:20:21.909Z,746.05
2015-11-07T01:20:35.130Z,745.99
2015-11-07T01:20:48.349Z,746.02
2015-11-07T01:21:01.427Z,746.04
2015-11-07T01:21:14.693Z,746.02
2015-11-07T01:21:27.943Z,746.02
2015-11-07T01:21:41.180Z,745.99
2015-11-07T01:21:54.415Z,745.92
2015-11-07T01:22:07.633Z,746.03
2015-11-07T01:22:20.883Z,745.94
2015-11-07T01:22:34.105Z,746.04
2015-11-07T01:23:06.527Z,746.03
2015-11-07T01:23:19.793Z,746.05
2015-11-07T01:23:33.058Z,746.08
2015-11-07T01:23:46.154Z,746.03
2015-11-07T01:23:59.404Z,746.04
2015-11-07T01:24:12.685Z,746.15
2015-11-07T01:24:25.920Z,746.08
2015-11-07T01:24:39.157Z,746.08
2015-11-07T01:24:52.376Z,746.05
2015-11-07T01:25:05.610Z,746.03
2015-11-07T01:25:18.829Z,746.03
2015-11-07T01:25:32.063Z,746.04
2015-11-07T01:25:45.300Z,745.95
2015-11-07T01:25:58.550Z,746
2015-11-07T01:26:11.784Z,746.01
2015-11-07T01:26:25.003Z,745.9
2015-11-07T01:26:38.224Z,745.99
2015-11-07T01:26:51.443Z,746.08
2015-11-07T01:27:04.662Z,746.06
2015-11-07T01:27:17.881Z,746
2015-11-07T01:27:31.115Z,746.04
2015-11-07T01:27:44.368Z,746.06
2015-11-07T01:27:57.618Z,746.13
2015-11-07T01:28:10.868Z,746.08
2015-11-07T01:28:23.962Z,746.06
2015-11-07T01:28:37.196Z,746.04
2015-11-07T01:28:50.417Z,746.04
2015-11-07T01:29:03.636Z,746.06
2015-11-07T01:29:16.870Z,746.07
2015-11-07T01:29:30.073Z,746.03
2015-11-07T01:29:43.296Z,746.03
2015-11-07T01:29:56.530Z,746.08
2015-11-07T01:30:09.765Z,746.06
2015-11-07T01:30:23.030Z,746.06
2015-11-07T01:30:36.280Z,746.08
2015-11-07T01:30:49.548Z,746.09
2015-11-07T01:31:02.767Z,746.08
2015-11-07T01:31:16.001Z,746.09
2015-11-07T01:31:29.220Z,746.06
2015-11-07T01:31:42.442Z,746.07
2015-11-07T01:31:55.660Z,746.06
2015-11-07T01:32:08.879Z,746.07
2015-11-07T01:32:21.942Z,746.09
2015-11-07T01:32:35.192Z,746.11
2015-11-07T01:32:48.429Z,746.11
2015-11-07T01:33:01.695Z,746.07
2015-11-07T01:33:14.976Z,746.03
2015-11-07T01:33:28.210Z,746.1
2015-11-07T01:33:41.429Z,746.07
2015-11-07T01:33:54.650Z,746.07
2015-11-07T01:34:07.884Z,746.14
2015-11-07T01:34:21.103Z,746.08
2015-11-07T01:34:34.322Z,746.1
2015-11-07T01:34:47.559Z,746.1
2015-11-07T01:35:00.793Z,746.05
2015-11-07T01:35:14.028Z,746.05
2015-11-07T01:35:27.293Z,746.12
2015-11-07T01:35:40.512Z,746.09
2015-11-07T01:35:53.734Z,746.08
2015-11-07T01:36:06.999Z,746.08
2015-11-07T01:36:20.218Z,746.08
2015-11-07T01:36:33.437Z,746.08
2015-11-07T01:36:46.674Z,746.1
2015-11-07T01:36:59.971Z,746.04
2015-11-07T01:37:13.221Z,746.09
2015-11-07T01:37:26.487Z,746.13
2015-11-07T01:37:39.706Z,746.06
2015-11-07T01:37:52.926Z,746.03
2015-11-07T01:38:06.161Z,746.04
2015-11-07T01:38:19.395Z,746.1
2015-11-07T01:38:32.645Z,746.08
2015-11-07T01:38:45.848Z,746.08
2015-11-07T01:38:59.100Z,746.08
2015-11-07T01:39:12.335Z,746.1
2015-11-07T01:39:25.600Z,746.05
2015-11-07T01:39:38.866Z,746.06
2015-11-07T01:39:52.104Z,746.04
2015-11-07T01:40:05.323Z,746.04
2015-11-07T01:40:18.542Z,746.1
2015-11-07T01:40:31.760Z,746.11
2015-11-07T01:40:44.979Z,746.09
2015-11-07T01:40:58.029Z,746.12
2015-11-07T01:41:11.279Z,746.06
2015-11-07T01:41:24.498Z,746.09
2015-11-07T01:41:37.748Z,746.08
2015-11-07T01:41:51.000Z,745.99
2015-11-07T01:42:04.219Z,746.05
2015-11-07T01:42:17.453Z,746
2015-11-07T01:42:30.672Z,746.09
2015-11-07T01:42:43.922Z,746.07
2015-11-07T01:42:57.159Z,746.1
2015-11-07T01:43:10.425Z,746.13
2015-11-07T01:43:23.675Z,746.08
2015-11-07T01:43:36.925Z,745.97
2015-11-07T01:43:50.145Z,746.04
2015-11-07T01:44:03.364Z,746.11
2015-11-07T01:44:16.567Z,746.07
2015-11-07T01:44:29.802Z,746.02
2015-11-07T01:44:43.052Z,746.01
2015-11-07T01:44:56.289Z,746.08
2015-11-07T01:45:09.523Z,746.05
2015-11-07T01:45:22.805Z,746.05
2015-11-07T01:45:36.023Z,746.06
2015-11-07T01:45:49.242Z,746
2015-11-07T01:46:02.480Z,746.02
2015-11-07T01:46:15.698Z,746
2015-11-07T01:46:28.948Z,746.04
2015-11-07T01:46:42.183Z,746.06
2015-11-07T01:46:55.436Z,746.1
2015-11-07T01:47:08.686Z,746.03
2015-11-07T01:47:21.889Z,746.04
2015-11-07T01:47:35.092Z,746.04
2015-11-07T01:47:48.311Z,746.06
2015-11-07T01:48:01.547Z,746.05
2015-11-07T01:48:14.766Z,746.08
2015-11-07T01:48:28.000Z,746.01
2015-11-07T01:48:41.250Z,746.06
2015-11-07T01:48:54.331Z,746.01
2015-11-07T01:49:07.597Z,746.07
2015-11-07T01:49:20.894Z,746.1
2015-11-07T01:49:34.113Z,746.06
2015-11-07T01:49:47.347Z,745.99
2015-11-07T01:50:00.569Z,746.02
2015-11-07T01:50:13.772Z,746.07
2015-11-07T01:50:27.006Z,746.05
2015-11-07T01:50:40.225Z,746.02
2015-11-07T01:50:53.459Z,746.04
2015-11-07T01:51:06.696Z,746.06
2015-11-07T01:51:19.961Z,745.93
2015-11-07T01:51:33.227Z,745.97
2015-11-07T01:51:46.446Z,745.97
2015-11-07T01:51:59.667Z,746.07
2015-11-07T01:52:12.902Z,746.1
2015-11-07T01:52:26.136Z,746.16
2015-11-07T01:52:39.339Z,746.01
2015-11-07T01:52:52.589Z,746.07
2015-11-07T01:53:05.827Z,745.99
2015-11-07T01:53:19.077Z,746.01
2015-11-07T01:53:32.327Z,746
2015-11-07T01:53:45.577Z,746.02
2015-11-07T01:53:58.814Z,746.07
2015-11-07T01:54:12.033Z,746.01
2015-11-07T01:54:25.252Z,745.98
2015-11-07T01:54:38.486Z,745.88
2015-11-07T01:54:51.705Z,745.97
2015-11-07T01:55:04.925Z,745.97
2015-11-07T01:55:18.160Z,745.96
2015-11-07T01:55:31.410Z,746.12
2015-11-07T01:55:44.660Z,745.94
2015-11-07T01:55:57.925Z,746.01
2015-11-07T01:56:11.210Z,746.01
2015-11-07T01:56:24.460Z,745.93
2015-11-07T01:56:37.694Z,746.02
2015-11-07T01:56:50.913Z,745.98
2015-11-07T01:57:04.150Z,745.97
2015-11-07T01:57:17.369Z,745.99
2015-11-07T01:57:30.603Z,745.95
2015-11-07T01:57:43.853Z,745.91
2015-11-07T01:57:57.103Z,745.96
2015-11-07T01:58:10.340Z,746.01
2015-11-07T01:58:23.637Z,745.95
2015-11-07T01:58:36.855Z,746.07
2015-11-07T01:58:50.074Z,746
2015-11-07T01:59:03.311Z,745.96
2015-11-07T01:59:16.530Z,745.96
2015-11-07T01:59:29.749Z,745.95
2015-11-07T01:59:42.983Z,745.91
2015-11-07T01:59:56.218Z,745.97
2015-11-07T02:00:09.471Z,745.93
2015-11-07T02:00:22.736Z,745.9
2015-11-07T02:00:35.971Z,745.93
2015-11-07T02:00:49.174Z,745.9
2015-11-07T02:01:02.455Z,745.9
2015-11-07T02:01:15.677Z,745.96
2015-11-07T02:01:28.896Z,745.89
2015-11-07T02:01:42.130Z,745.91
2015-11-07T02:01:55.364Z,745.88
2015-11-07T02:02:08.602Z,745.88
2015-11-07T02:02:21.852Z,745.92
2015-11-07T02:02:35.180Z,745.92
2015-11-07T02:02:48.399Z,745.9
2015-11-07T02:03:01.633Z,745.89
2015-11-07T02:03:14.854Z,745.87
2015-11-07T02:03:28.088Z,745.85
2015-11-07T02:03:41.307Z,745.9
2015-11-07T02:03:54.526Z,745.89
2015-11-07T02:04:07.763Z,745.94
2015-11-07T02:04:21.013Z,746.04
2015-11-07T02:04:34.263Z,745.9
2015-11-07T02:04:47.529Z,745.93
2015-11-07T02:05:00.794Z,745.88
2015-11-07T02:05:14.047Z,745.88
2015-11-07T02:05:27.266Z,745.97
2015-11-07T02:05:40.500Z,745.94
2015-11-07T02:05:53.719Z,745.9
2015-11-07T02:06:06.953Z,745.95
2015-11-07T02:06:20.174Z,745.98
2015-11-07T02:06:33.409Z,745.95
2015-11-07T02:06:46.643Z,745.89
2015-11-07T02:06:59.893Z,745.89
2015-11-07T02:07:13.162Z,745.93
2015-11-07T02:07:26.427Z,745.96
2015-11-07T02:07:39.677Z,746.01
2015-11-07T02:07:52.896Z,745.99
2015-11-07T02:08:06.099Z,746.03
2015-11-07T02:08:19.336Z,745.96
2015-11-07T02:08:32.555Z,745.96
2015-11-07T02:08:45.790Z,745.98
2015-11-07T02:08:59.040Z,745.99
2015-11-07T02:09:12.308Z,746.03
2015-11-07T02:09:25.574Z,746.01
2015-11-07T02:09:38.808Z,745.97
2015-11-07T02:09:52.027Z,745.94
2015-11-07T02:10:05.246Z,745.92
2015-11-07T02:10:18.482Z,746
2015-11-07T02:10:31.701Z,745.95
2015-11-07T02:10:44.920Z,745.97
2015-11-07T02:10:58.170Z,745.86
2015-11-07T02:11:11.404Z,745.98
2015-11-07T02:11:24.673Z,745.87
2015-11-07T02:11:37.938Z,745.94
2015-11-07T02:11:51.188Z,745.87
2015-11-07T02:12:04.423Z,745.87
2015-11-07T02:12:17.644Z,745.89
2015-11-07T02:12:30.863Z,745.9
2015-11-07T02:12:44.097Z,746.01
2015-11-07T02:12:57.316Z,746
2015-11-07T02:13:10.519Z,745.99
2015-11-07T02:13:23.803Z,745.92
2015-11-07T02:13:37.053Z,745.88
2015-11-07T02:13:50.303Z,745.97
2015-11-07T02:14:03.568Z,745.95
2015-11-07T02:14:16.806Z,745.93
2015-11-07T02:14:30.024Z,745.91
2015-11-07T02:14:43.259Z,745.9
2015-11-07T02:14:56.493Z,745.95
2015-11-07T02:15:09.712Z,745.92
2015-11-07T02:15:22.934Z,745.9
2015-11-07T02:15:36.168Z,745.96
2015-11-07T02:15:49.402Z,745.95
2015-11-07T02:16:02.668Z,745.98
2015-11-07T02:16:15.918Z,745.9
2015-11-07T02:16:29.140Z,745.91
2015-11-07T02:16:42.374Z,745.95
2015-11-07T02:16:55.593Z,745.9
2015-11-07T02:17:08.827Z,745.86
2015-11-07T02:17:22.048Z,745.92
2015-11-07T02:17:35.298Z,745.93
2015-11-07T02:17:48.532Z,745.94
2015-11-07T02:18:01.782Z,745.9
2015-11-07T02:18:15.032Z,745.86
2015-11-07T02:18:28.301Z,745.9
2015-11-07T02:18:41.567Z,745.89
2015-11-07T02:18:54.801Z,745.81
2015-11-07T02:19:08.020Z,745.88
2015-11-07T02:19:21.226Z,745.87
2015-11-07T02:19:34.460Z,745.93
2015-11-07T02:19:47.679Z,745.85
2015-11-07T02:20:00.898Z,745.77
2015-11-07T02:20:14.148Z,745.83
2015-11-07T02:20:27.385Z,745.91
2015-11-07T02:20:40.651Z,745.91
2015-11-07T02:20:53.901Z,745.87
2015-11-07T02:21:07.135Z,745.89
2015-11-07T02:21:20.354Z,745.86
2015-11-07T02:21:33.591Z,745.84
2015-11-07T02:21:46.810Z,745.83
2015-11-07T02:22:00.029Z,745.85
2015-11-07T02:22:13.232Z,745.89
2015-11-07T02:22:26.453Z,745.85
2015-11-07T02:22:39.687Z,745.97
2015-11-07T02:22:52.921Z,745.92
2015-11-07T02:23:06.171Z,745.88
2015-11-07T02:23:19.468Z,745.9
2015-11-07T02:23:32.721Z,745.88
2015-11-07T02:23:45.924Z,745.89
2015-11-07T02:23:59.159Z,745.87
2015-11-07T02:24:12.393Z,745.89
2015-11-07T02:24:25.615Z,745.92
2015-11-07T02:24:38.849Z,745.92
2015-11-07T02:24:52.068Z,745.91
2015-11-07T02:25:05.302Z,745.91
2015-11-07T02:25:18.537Z,745.9
2015-11-07T02:25:31.805Z,745.89
2015-11-07T02:25:45.055Z,745.85
2015-11-07T02:25:58.321Z,745.82
2015-11-07T02:26:11.555Z,745.86
2015-11-07T02:26:24.790Z,745.95
2015-11-07T02:26:38.010Z,745.88
2015-11-07T02:26:51.229Z,745.88
2015-11-07T02:27:04.448Z,745.85
2015-11-07T02:27:17.667Z,745.87
2015-11-07T02:27:30.904Z,745.82
2015-11-07T02:27:44.154Z,745.83
2015-11-07T02:27:57.404Z,745.89
2015-11-07T02:28:10.670Z,745.84
2015-11-07T02:28:23.920Z,745.89
2015-11-07T02:28:37.126Z,745.89
2015-11-07T02:28:50.345Z,745.85
2015-11-07T02:29:03.579Z,745.85
2015-11-07T02:29:16.798Z,745.9
2015-11-07T02:29:30.018Z,745.87
2015-11-07T02:29:43.237Z,745.91
2015-11-07T02:29:56.472Z,745.85
2015-11-07T02:30:09.722Z,745.88
2015-11-07T02:30:22.987Z,745.92
2015-11-07T02:30:36.240Z,745.88
2015-11-07T02:30:49.506Z,745.86
2015-11-07T02:31:02.725Z,745.82
2015-11-07T02:31:15.943Z,745.87
2015-11-07T02:31:29.162Z,745.88
2015-11-07T02:31:42.399Z,745.91
2015-11-07T02:31:55.665Z,745.89
2015-11-07T02:32:08.899Z,745.9
2015-11-07T02:32:22.149Z,745.9
2015-11-07T02:32:35.386Z,745.9
2015-11-07T02:32:48.651Z,745.88
2015-11-07T02:33:01.901Z,745.85
2015-11-07T02:33:15.120Z,745.87
2015-11-07T02:33:28.355Z,745.88
2015-11-07T02:33:41.576Z,745.89
2015-11-07T02:33:54.795Z,745.84
2015-11-07T02:34:08.014Z,745.87
2015-11-07T02:34:21.233Z,745.84
2015-11-07T02:34:34.486Z,745.84
2015-11-07T02:34:47.720Z,745.79
2015-11-07T02:35:00.986Z,745.82
2015-11-07T02:35:14.251Z,745.78
2015-11-07T02:35:27.470Z,745.84
2015-11-07T02:35:40.706Z,745.67
2015-11-07T02:35:53.909Z,745.8
2015-11-07T02:36:07.128Z,745.82
2015-11-07T02:36:20.363Z,745.85
2015-11-07T02:36:33.581Z,745.77
2015-11-07T02:36:46.819Z,745.84
2015-11-07T02:37:00.069Z,745.84
2015-11-07T02:37:13.350Z,745.85
2015-11-07T02:37:26.616Z,745.83
2015-11-07T02:37:39.884Z,745.82
2015-11-07T02:37:52.947Z,745.79
2015-11-07T02:38:06.165Z,745.83
2015-11-07T02:38:19.384Z,745.84
2015-11-07T02:38:32.619Z,745.81
2015-11-07T02:38:45.856Z,745.8
2015-11-07T02:38:58.950Z,745.81
2015-11-07T02:39:12.200Z,745.89
2015-11-07T02:39:25.481Z,745.9
2015-11-07T02:39:38.702Z,745.87
2015-11-07T02:39:51.920Z,745.83
2015-11-07T02:40:05.139Z,745.82
2015-11-07T02:40:18.358Z,745.77
2015-11-07T02:40:31.624Z,745.86
2015-11-07T02:40:44.845Z,745.86
2015-11-07T02:40:58.095Z,745.74
2015-11-07T02:41:11.330Z,745.88
2015-11-07T02:41:24.595Z,745.84
2015-11-07T02:41:37.845Z,745.91
2015-11-07T02:41:51.067Z,745.83
2015-11-07T02:42:04.286Z,745.82
2015-11-07T02:42:17.505Z,745.82
2015-11-07T02:42:30.739Z,745.8
2015-11-07T02:42:43.992Z,745.9
2015-11-07T02:42:57.258Z,745.92
2015-11-07T02:43:10.351Z,745.89
2015-11-07T02:43:23.601Z,745.88
2015-11-07T02:43:36.820Z,745.93
2015-11-07T02:43:50.041Z,745.93
2015-11-07T02:44:03.260Z,745.93
2015-11-07T02:44:16.478Z,745.88
2015-11-07T02:44:29.697Z,745.9
2015-11-07T02:44:42.950Z,745.92
2015-11-07T02:44:56.200Z,745.86
2015-11-07T02:45:09.434Z,745.93
2015-11-07T02:45:22.528Z,745.83
2015-11-07T02:45:35.809Z,745.86
2015-11-07T02:45:49.078Z,745.9
2015-11-07T02:46:02.297Z,745.88
2015-11-07T02:46:15.531Z,745.89